Terminal Aerodrome Forecast
Issued by NWS

Home | Current Version | Previous Version | Text Only | Print | Product List | Glossary On
Versions: 1 2 3 4 5 6 7 8 9 10 11 12 13 14 15 16 17 18 19 20 21 22 23 24 25 26 27 28
269
FTUS42 KJAX 222052 AAC
TAFCRG
TAF AMD
KCRG 222052Z 2221/2318 12012G21KT 6SM -SHRA VCTS SCT035CB BKN060
      OVC150
      TEMPO 2221/2222 VRB25G34KT 1SM +TSRA SCT015 BKN025CB OVC050
     FM222300 07009KT 5SM -SHRA BR SCT015 BKN025 OVC035
     FM231200 04011G20KT P6SM VCSH SCT010 BKN020 OVC030=

USA.gov is the U.S. government's official web portal to all federal, state and local government web resources and services.